Emerald Coast — WDC9127 — position and weather

sailwx.info

Track history (hours):
 
Tides and Currents Weather Stations Pressure Air Temp Water Temp Dewpoint Dewpoint Depression Visibility Wind Speed Wind Dir Waves Ship Positions

Emerald Coast

Owner: Dann Marine Towing, LC, Chesapeake City, MD. More information available from US FCC via Universal Licensing System and Coast Guard Vessel Documentation Center.

Last reported at 2015-Sep-03 14:30 UTC. Time now 2015-Sep-03 15:18 UTC.
Position N 41°10' W 073°55'.

Length 28 m; draft 3 m.

Type: Towing. MMSI: 367097920.

Date/timePositionNaut miles runAvg speedWind from/ knotsBaromVisibWave heightAir tempDewpointWater temp
2015-Sep-03 14:30N 41°10' W 073°55'3 0.1
2015-Sep-02 13:27N 41°13' W 073°57'4 4.6
2015-Sep-02 12:31N 41°09' W 073°54'4 4.3
2015-Sep-02 11:33N 41°05' W 073°53'4 4.1
2015-Sep-02 10:33N 41°01' W 073°53'3 3.5
2015-Sep-02 09:33N 40°58' W 073°54'4 3.9
2015-Sep-02 08:33N 40°54' W 073°55'4 4.2
2015-Sep-02 07:34N 40°50' W 073°57'5 5.3
2015-Sep-02 06:34N 40°45' W 074°01'5 5.4
2015-Sep-02 05:33N 40°40' W 074°00'0 0.0
2015-Sep-02 04:33N 40°40' W 074°00'0 0.0
2015-Sep-02 03:34N 40°40' W 074°00'0 0.0
2015-Sep-02 02:33N 40°40' W 074°00'0 0.0
2015-Sep-02 01:33N 40°40' W 074°00'3 3.2
2015-Sep-02 00:33N 40°39' W 074°04'4 4.0
2015-Sep-01 23:33N 40°39' W 074°10'2 2.2
2015-Sep-01 22:33N 40°38' W 074°12'0 0.1
2015-Sep-01 21:34N 40°38' W 074°12'0 0.0
2015-Sep-01 20:34N 40°38' W 074°12'0 0.0
2015-Sep-01 19:34N 40°38' W 074°12'0 0.1
2015-Sep-01 18:33N 40°38' W 074°12'4 3.8
2015-Sep-01 17:32N 40°38' W 074°07'0 0.0
2015-Sep-01 16:34N 40°38' W 074°07'0 0.0
2015-Sep-01 15:30N 40°38' W 074°07'0 0.0
2015-Sep-01 14:25N 40°38' W 074°07'0 0.0
2015-Sep-01 13:33N 40°38' W 074°07'0 0.0
2015-Sep-01 12:31N 40°38' W 074°07'0 0.0
2015-Sep-01 11:07N 40°38' W 074°07'4 6.3
2015-Sep-01 10:33N 40°38' W 074°12'2 1.8
2015-Sep-01 09:34N 40°39' W 074°10'4 4.4
2015-Sep-01 08:34N 40°39' W 074°04'4 3.7
2015-Sep-01 07:33N 40°41' W 074°00'0 0.0
2015-Sep-01 06:33N 40°41' W 074°00'0 0.0
2015-Sep-01 05:33N 40°41' W 074°00'0 0.0
2015-Sep-01 04:33N 40°41' W 074°00'0 0.0
2015-Sep-01 03:34N 40°41' W 074°00'1 0.8
2015-Sep-01 02:33N 40°41' W 074°01'6 5.9
2015-Sep-01 01:34N 40°40' W 074°09'2 2.2
2015-Sep-01 00:34N 40°39' W 074°06'2 2.0
2015-Aug-31 23:33N 40°38' W 074°04'0 0.1
2015-Aug-31 22:33N 40°38' W 074°04'0 0.1
2015-Aug-31 21:33N 40°38' W 074°04'0 0.0
2015-Aug-31 20:34N 40°38' W 074°04'0 0.0
2015-Aug-31 19:34N 40°38' W 074°04'0 0.0
2015-Aug-31 18:33N 40°38' W 074°04'4 3.8
2015-Aug-31 17:33N 40°38' W 074°09'2 1.9
2015-Aug-31 16:33N 40°39' W 074°11'0 0.0
2015-Aug-31 15:33N 40°39' W 074°11'0 0.0
2015-Aug-31 14:33N 40°39' W 074°11'0 0.0
2015-Aug-31 13:33N 40°39' W 074°11'0 0.0
2015-Aug-31 12:34N 40°39' W 074°11'0 0.0
2015-Aug-31 11:33N 40°39' W 074°11'2 2.3
2015-Aug-31 10:33N 40°40' W 074°08'2 1.8
2015-Aug-31 09:33N 40°41' W 074°09'0 0.0
2015-Aug-31 08:33N 40°41' W 074°09'0 0.0
2015-Aug-31 07:33N 40°41' W 074°09'0 0.0
2015-Aug-31 06:33N 40°41' W 074°09'0 0.0
2015-Aug-31 05:34N 40°41' W 074°09'0 0.0
2015-Aug-31 04:33N 40°41' W 074°09'0 0.0
2015-Aug-31 03:34N 40°41' W 074°09'1 1.2
2015-Aug-31 02:33N 40°40' W 074°08'3 2.5
2015-Aug-31 01:33N 40°39' W 074°05'1 1.3
2015-Aug-31 00:28N 40°38' W 074°07'0 0.0
2015-Aug-30 23:22N 40°38' W 074°07'0 0.0
2015-Aug-30 22:33N 40°38' W 074°07'0 0.0
2015-Aug-30 21:33N 40°38' W 074°07'0 0.0
2015-Aug-30 20:33N 40°38' W 074°07'0 0.0
2015-Aug-30 19:31N 40°38' W 074°07'0 0.0
2015-Aug-30 18:33N 40°38' W 074°07'2 2.1
2015-Aug-30 17:33N 40°39' W 074°05'2 2.1
2015-Aug-30 16:33N 40°38' W 074°07'0 0.0
2015-Aug-30 15:33N 40°38' W 074°07'0 0.0
2015-Aug-30 14:24N 40°38' W 074°07'4 5.1
2015-Aug-30 13:34N 40°41' W 074°02'0 0.4
2015-Aug-30 12:33N 40°41' W 074°03'0 0.1
2015-Aug-30 11:33N 40°41' W 074°03'0 0.0
2015-Aug-30 10:33N 40°41' W 074°03'0 0.1
2015-Aug-30 09:33N 40°40' W 074°03'3 2.6
2015-Aug-30 08:34N 40°43' W 074°01'6 5.9
2015-Aug-30 07:34N 40°48' W 073°59'6 5.7
2015-Aug-30 06:34N 40°53' W 073°56'2 0.0
2015-Aug-28 19:33N 40°55' W 073°55'3 3.4
2015-Aug-28 18:33N 40°52' W 073°57'3 3.0
2015-Aug-28 17:33N 40°49' W 073°58'3 3.4
2015-Aug-28 16:34N 40°46' W 074°00'4 4.2
2015-Aug-28 15:33N 40°42' W 074°02'5 4.9
2015-Aug-28 14:34N 40°39' W 074°07'4 4.3
2015-Aug-28 13:33N 40°38' W 074°12'4 3.7
2015-Aug-28 12:33N 40°39' W 074°08'0 0.5
2015-Aug-28 11:33N 40°39' W 074°07'0 0.0
2015-Aug-28 10:33N 40°39' W 074°07'0 0.0
2015-Aug-28 09:34N 40°39' W 074°07'0 0.0
2015-Aug-28 08:34N 40°39' W 074°07'0 0.0
2015-Aug-28 07:33N 40°39' W 074°07'0 0.0
2015-Aug-28 06:33N 40°39' W 074°07'0 0.0
2015-Aug-28 05:33N 40°39' W 074°07'0 0.0
2015-Aug-28 04:33N 40°39' W 074°07'0 0.0
2015-Aug-28 03:34N 40°39' W 074°07'1 0.7
2015-Aug-28 02:33N 40°39' W 074°06'2 2.2
2015-Aug-28 01:34N 40°40' W 074°09'0 0.0
2015-Aug-28 00:33N 40°40' W 074°09'0 0.0
2015-Aug-27 23:34N 40°40' W 074°09'0 0.0
2015-Aug-27 22:34N 40°40' W 074°09'1 0.8
2015-Aug-27 21:33N 40°41' W 074°08'1 1.0
2015-Aug-27 20:34N 40°41' W 074°09'0 0.0
2015-Aug-27 19:33N 40°41' W 074°09'1 1.3
2015-Aug-27 18:33N 40°40' W 074°09'2 1.9
2015-Aug-27 17:33N 40°39' W 074°07'0 0.0
2015-Aug-27 16:32N 40°39' W 074°07'1 0.9
2015-Aug-27 15:34N 40°39' W 074°08'1 1.1
2015-Aug-27 14:34N 40°40' W 074°09'1 1.3
2015-Aug-27 13:33N 40°39' W 074°08'3 2.9
2015-Aug-27 12:33N 40°40' W 074°04'3 3.0
2015-Aug-27 11:33N 40°40' W 074°00'0 0.0
2015-Aug-27 10:33N 40°40' W 074°00'0 0.1
2015-Aug-27 09:34N 40°40' W 074°00'0 0.0
2015-Aug-27 08:34N 40°40' W 074°00'0 0.0
2015-Aug-27 07:34N 40°40' W 074°00'0 0.0
2015-Aug-27 06:34N 40°40' W 074°00'5 4.8
2015-Aug-27 05:33N 40°39' W 074°06'5 4.6
2015-Aug-27 04:34N 40°37' W 074°12'2 0.5
2015-Aug-27 00:19N 40°35' W 074°13'4 4.9
2015-Aug-26 23:33N 40°39' W 074°11'3 2.9
2015-Aug-26 22:33N 40°41' W 074°09'0 0.0
2015-Aug-26 21:33N 40°41' W 074°09'0 0.0
2015-Aug-26 18:32N 40°41' W 074°09'0 0.0
2015-Aug-26 17:25N 40°41' W 074°09'2 2.3
2015-Aug-26 16:33N 40°39' W 074°09'5 5.4
2015-Aug-26 15:33N 40°41' W 074°02'5 3.7
2015-Aug-26 14:13N 40°46' W 073°60'0 0.0
2015-Aug-26 13:32N 40°46' W 073°60'0 0.0
2015-Aug-26 12:31N 40°46' W 073°60'0 0.1
2015-Aug-26 11:29N 40°46' W 074°00'4 4.3
2015-Aug-26 10:34N 40°42' W 074°02'5 5.0
2015-Aug-26 09:33N 40°39' W 074°07'1 0.1
2015-Aug-26 04:33N 40°39' W 074°07'3 3.3
2015-Aug-26 03:33N 40°39' W 074°03'2 2.2
2015-Aug-26 02:34N 40°40' W 074°00'1 0.7
2015-Aug-26 01:34N 40°40' W 074°01'1 1.5
2015-Aug-26 00:33N 40°40' W 074°03'7 6.5
2015-Aug-25 23:33N 40°38' W 074°12'1 1.3
2015-Aug-25 22:33N 40°39' W 074°10'2 0.5
2015-Aug-25 18:07N 40°39' W 074°07'0 0.0
2015-Aug-25 17:33N 40°39' W 074°07'0 0.0
2015-Aug-25 16:30N 40°39' W 074°07'0 0.0
2015-Aug-25 15:12N 40°39' W 074°07'0 0.0
2015-Aug-25 14:29N 40°39' W 074°07'0 0.0
2015-Aug-25 11:33N 40°39' W 074°07'4 3.8
2015-Aug-25 10:32N 40°38' W 074°12'1 1.4
2015-Aug-25 09:34N 40°39' W 074°11'3 2.6
2015-Aug-25 08:33N 40°39' W 074°07'0 0.1
2015-Aug-25 05:13N 40°39' W 074°07'4 5.6
2015-Aug-25 04:33N 40°40' W 074°03'7 6.8
2015-Aug-25 03:33N 40°47' W 073°60'8 8.4
2015-Aug-25 02:33N 40°55' W 073°55'  
Track history (hours):
 
Tides and Currents Weather Stations Pressure Air Temp Water Temp Dewpoint Dewpoint Depression Visibility Wind Speed Wind Dir Waves Ship Positions

Emerald Coast

Owner: Dann Marine Towing, LC, Chesapeake City, MD. More information available from US FCC via Universal Licensing System and Coast Guard Vessel Documentation Center.

Last reported at 2015-Sep-03 14:30 UTC. Time now 2015-Sep-03 15:18 UTC.
Position N 41°10' W 073°55'.

Length 28 m; draft 3 m.

Type: Towing. MMSI: 367097920.

Date/timePositionNaut miles runAvg speedWind from/ knotsBaromVisibWave heightAir tempDewpointWater temp
2015-Sep-03 14:30N 41°10' W 073°55'3 0.1
2015-Sep-02 13:27N 41°13' W 073°57'4 4.6
2015-Sep-02 12:31N 41°09' W 073°54'4 4.3
2015-Sep-02 11:33N 41°05' W 073°53'4 4.1
2015-Sep-02 10:33N 41°01' W 073°53'3 3.5
2015-Sep-02 09:33N 40°58' W 073°54'4 3.9
2015-Sep-02 08:33N 40°54' W 073°55'4 4.2
2015-Sep-02 07:34N 40°50' W 073°57'5 5.3
2015-Sep-02 06:34N 40°45' W 074°01'5 5.4
2015-Sep-02 05:33N 40°40' W 074°00'0 0.0
2015-Sep-02 04:33N 40°40' W 074°00'0 0.0
2015-Sep-02 03:34N 40°40' W 074°00'0 0.0
2015-Sep-02 02:33N 40°40' W 074°00'0 0.0
2015-Sep-02 01:33N 40°40' W 074°00'3 3.2
2015-Sep-02 00:33N 40°39' W 074°04'4 4.0
2015-Sep-01 23:33N 40°39' W 074°10'2 2.2
2015-Sep-01 22:33N 40°38' W 074°12'0 0.1
2015-Sep-01 21:34N 40°38' W 074°12'0 0.0
2015-Sep-01 20:34N 40°38' W 074°12'0 0.0
2015-Sep-01 19:34N 40°38' W 074°12'0 0.1
2015-Sep-01 18:33N 40°38' W 074°12'4 3.8
2015-Sep-01 17:32N 40°38' W 074°07'0 0.0
2015-Sep-01 16:34N 40°38' W 074°07'0 0.0
2015-Sep-01 15:30N 40°38' W 074°07'0 0.0
2015-Sep-01 14:25N 40°38' W 074°07'0 0.0
2015-Sep-01 13:33N 40°38' W 074°07'0 0.0
2015-Sep-01 12:31N 40°38' W 074°07'0 0.0
2015-Sep-01 11:07N 40°38' W 074°07'4 6.3
2015-Sep-01 10:33N 40°38' W 074°12'2 1.8
2015-Sep-01 09:34N 40°39' W 074°10'4 4.4
2015-Sep-01 08:34N 40°39' W 074°04'4 3.7
2015-Sep-01 07:33N 40°41' W 074°00'0 0.0
2015-Sep-01 06:33N 40°41' W 074°00'0 0.0
2015-Sep-01 05:33N 40°41' W 074°00'0 0.0
2015-Sep-01 04:33N 40°41' W 074°00'0 0.0
2015-Sep-01 03:34N 40°41' W 074°00'1 0.8
2015-Sep-01 02:33N 40°41' W 074°01'6 5.9
2015-Sep-01 01:34N 40°40' W 074°09'2 2.2
2015-Sep-01 00:34N 40°39' W 074°06'2 2.0
2015-Aug-31 23:33N 40°38' W 074°04'0 0.1
2015-Aug-31 22:33N 40°38' W 074°04'0 0.1
2015-Aug-31 21:33N 40°38' W 074°04'0 0.0
2015-Aug-31 20:34N 40°38' W 074°04'0 0.0
2015-Aug-31 19:34N 40°38' W 074°04'0 0.0
2015-Aug-31 18:33N 40°38' W 074°04'4 3.8
2015-Aug-31 17:33N 40°38' W 074°09'2 1.9
2015-Aug-31 16:33N 40°39' W 074°11'0 0.0
2015-Aug-31 15:33N 40°39' W 074°11'0 0.0
2015-Aug-31 14:33N 40°39' W 074°11'0 0.0
2015-Aug-31 13:33N 40°39' W 074°11'0 0.0
2015-Aug-31 12:34N 40°39' W 074°11'0 0.0
2015-Aug-31 11:33N 40°39' W 074°11'2 2.3
2015-Aug-31 10:33N 40°40' W 074°08'2 1.8
2015-Aug-31 09:33N 40°41' W 074°09'0 0.0
2015-Aug-31 08:33N 40°41' W 074°09'0 0.0
2015-Aug-31 07:33N 40°41' W 074°09'0 0.0
2015-Aug-31 06:33N 40°41' W 074°09'0 0.0
2015-Aug-31 05:34N 40°41' W 074°09'0 0.0
2015-Aug-31 04:33N 40°41' W 074°09'0 0.0
2015-Aug-31 03:34N 40°41' W 074°09'1 1.2
2015-Aug-31 02:33N 40°40' W 074°08'3 2.5
2015-Aug-31 01:33N 40°39' W 074°05'1 1.3
2015-Aug-31 00:28N 40°38' W 074°07'0 0.0
2015-Aug-30 23:22N 40°38' W 074°07'0 0.0
2015-Aug-30 22:33N 40°38' W 074°07'0 0.0
2015-Aug-30 21:33N 40°38' W 074°07'0 0.0
2015-Aug-30 20:33N 40°38' W 074°07'0 0.0
2015-Aug-30 19:31N 40°38' W 074°07'0 0.0
2015-Aug-30 18:33N 40°38' W 074°07'2 2.1
2015-Aug-30 17:33N 40°39' W 074°05'2 2.1
2015-Aug-30 16:33N 40°38' W 074°07'0 0.0
2015-Aug-30 15:33N 40°38' W 074°07'0 0.0
2015-Aug-30 14:24N 40°38' W 074°07'4 5.1
2015-Aug-30 13:34N 40°41' W 074°02'0 0.4
2015-Aug-30 12:33N 40°41' W 074°03'0 0.1
2015-Aug-30 11:33N 40°41' W 074°03'0 0.0
2015-Aug-30 10:33N 40°41' W 074°03'0 0.1
2015-Aug-30 09:33N 40°40' W 074°03'3 2.6
2015-Aug-30 08:34N 40°43' W 074°01'6 5.9
2015-Aug-30 07:34N 40°48' W 073°59'6 5.7
2015-Aug-30 06:34N 40°53' W 073°56'2 0.0
2015-Aug-28 19:33N 40°55' W 073°55'3 3.4
2015-Aug-28 18:33N 40°52' W 073°57'3 3.0
2015-Aug-28 17:33N 40°49' W 073°58'3 3.4
2015-Aug-28 16:34N 40°46' W 074°00'4 4.2
2015-Aug-28 15:33N 40°42' W 074°02'5 4.9
2015-Aug-28 14:34N 40°39' W 074°07'4 4.3
2015-Aug-28 13:33N 40°38' W 074°12'4 3.7
2015-Aug-28 12:33N 40°39' W 074°08'0 0.5
2015-Aug-28 11:33N 40°39' W 074°07'0 0.0
2015-Aug-28 10:33N 40°39' W 074°07'0 0.0
2015-Aug-28 09:34N 40°39' W 074°07'0 0.0
2015-Aug-28 08:34N 40°39' W 074°07'0 0.0
2015-Aug-28 07:33N 40°39' W 074°07'0 0.0
2015-Aug-28 06:33N 40°39' W 074°07'0 0.0
2015-Aug-28 05:33N 40°39' W 074°07'0 0.0
2015-Aug-28 04:33N 40°39' W 074°07'0 0.0
2015-Aug-28 03:34N 40°39' W 074°07'1 0.7
2015-Aug-28 02:33N 40°39' W 074°06'2 2.2
2015-Aug-28 01:34N 40°40' W 074°09'0 0.0
2015-Aug-28 00:33N 40°40' W 074°09'0 0.0
2015-Aug-27 23:34N 40°40' W 074°09'0 0.0
2015-Aug-27 22:34N 40°40' W 074°09'1 0.8
2015-Aug-27 21:33N 40°41' W 074°08'1 1.0
2015-Aug-27 20:34N 40°41' W 074°09'0 0.0
2015-Aug-27 19:33N 40°41' W 074°09'1 1.3
2015-Aug-27 18:33N 40°40' W 074°09'2 1.9
2015-Aug-27 17:33N 40°39' W 074°07'0 0.0
2015-Aug-27 16:32N 40°39' W 074°07'1 0.9
2015-Aug-27 15:34N 40°39' W 074°08'1 1.1
2015-Aug-27 14:34N 40°40' W 074°09'1 1.3
2015-Aug-27 13:33N 40°39' W 074°08'3 2.9
2015-Aug-27 12:33N 40°40' W 074°04'3 3.0
2015-Aug-27 11:33N 40°40' W 074°00'0 0.0
2015-Aug-27 10:33N 40°40' W 074°00'0 0.1
2015-Aug-27 09:34N 40°40' W 074°00'0 0.0
2015-Aug-27 08:34N 40°40' W 074°00'0 0.0
2015-Aug-27 07:34N 40°40' W 074°00'0 0.0
2015-Aug-27 06:34N 40°40' W 074°00'5 4.8
2015-Aug-27 05:33N 40°39' W 074°06'5 4.6
2015-Aug-27 04:34N 40°37' W 074°12'2 0.5
2015-Aug-27 00:19N 40°35' W 074°13'4 4.9
2015-Aug-26 23:33N 40°39' W 074°11'3 2.9
2015-Aug-26 22:33N 40°41' W 074°09'0 0.0
2015-Aug-26 21:33N 40°41' W 074°09'0 0.0
2015-Aug-26 18:32N 40°41' W 074°09'0 0.0
2015-Aug-26 17:25N 40°41' W 074°09'2 2.3
2015-Aug-26 16:33N 40°39' W 074°09'5 5.4
2015-Aug-26 15:33N 40°41' W 074°02'5 3.7
2015-Aug-26 14:13N 40°46' W 073°60'0 0.0
2015-Aug-26 13:32N 40°46' W 073°60'0 0.0
2015-Aug-26 12:31N 40°46' W 073°60'0 0.1
2015-Aug-26 11:29N 40°46' W 074°00'4 4.3
2015-Aug-26 10:34N 40°42' W 074°02'5 5.0
2015-Aug-26 09:33N 40°39' W 074°07'1 0.1
2015-Aug-26 04:33N 40°39' W 074°07'3 3.3
2015-Aug-26 03:33N 40°39' W 074°03'2 2.2
2015-Aug-26 02:34N 40°40' W 074°00'1 0.7
2015-Aug-26 01:34N 40°40' W 074°01'1 1.5
2015-Aug-26 00:33N 40°40' W 074°03'7 6.5
2015-Aug-25 23:33N 40°38' W 074°12'1 1.3
2015-Aug-25 22:33N 40°39' W 074°10'2 0.5
2015-Aug-25 18:07N 40°39' W 074°07'0 0.0
2015-Aug-25 17:33N 40°39' W 074°07'0 0.0
2015-Aug-25 16:30N 40°39' W 074°07'0 0.0
2015-Aug-25 15:12N 40°39' W 074°07'0 0.0
2015-Aug-25 14:29N 40°39' W 074°07'0 0.0
2015-Aug-25 11:33N 40°39' W 074°07'4 3.8
2015-Aug-25 10:32N 40°38' W 074°12'1 1.4
2015-Aug-25 09:34N 40°39' W 074°11'3 2.6
2015-Aug-25 08:33N 40°39' W 074°07'0 0.1
2015-Aug-25 05:13N 40°39' W 074°07'4 5.6
2015-Aug-25 04:33N 40°40' W 074°03'7 6.8
2015-Aug-25 03:33N 40°47' W 073°60'8 8.4
2015-Aug-25 02:33N 40°55' W 073°55'  

Dump ship's entire track history